sensor_id;sensor_type;location;lat;lon;timestamp;P1;durP1;ratioP1;P2;durP2;ratioP2
23336;SDS011;11840;45.414;12.372;2022-08-06T04:47:50;4.78;;;3.30;;
23336;SDS011;11840;45.414;12.372;2022-08-06T04:50:17;6.35;;;3.58;;
23336;SDS011;11840;45.414;12.372;2022-08-06T04:52:43;4.57;;;3.40;;
23336;SDS011;11840;45.414;12.372;2022-08-06T04:55:08;4.28;;;3.50;;
23336;SDS011;11840;45.414;12.372;2022-08-06T04:57:34;4.18;;;3.00;;
23336;SDS011;11840;45.414;12.372;2022-08-06T05:00:00;8.60;;;3.47;;
23336;SDS011;11840;45.414;12.372;2022-08-06T05:02:26;4.40;;;3.22;;
23336;SDS011;11840;45.414;12.372;2022-08-06T05:04:53;5.85;;;3.38;;
23336;SDS011;11840;45.414;12.372;2022-08-06T05:07:25;7.22;;;3.60;;
23336;SDS011;11840;45.414;12.372;2022-08-06T05:09:53;5.03;;;3.33;;
23336;SDS011;11840;45.414;12.372;2022-08-06T05:15:07;3.70;;;3.00;;
23336;SDS011;11840;45.414;12.372;2022-08-06T05:17:34;5.00;;;3.53;;
23336;SDS011;11840;45.414;12.372;2022-08-06T05:20:04;4.40;;;3.75;;
23336;SDS011;11840;45.414;12.372;2022-08-06T05:22:31;5.68;;;3.65;;
23336;SDS011;11840;45.414;12.372;2022-08-06T05:24:56;4.93;;;3.28;;
23336;SDS011;11840;45.414;12.372;2022-08-06T05:27:24;5.50;;;3.53;;
23336;SDS011;11840;45.414;12.372;2022-08-06T05:29:50;4.63;;;2.95;;
23336;SDS011;11840;45.414;12.372;2022-08-06T05:32:15;10.48;;;3.45;;
23336;SDS011;11840;45.414;12.372;2022-08-06T05:34:42;6.20;;;3.20;;
23336;SDS011;11840;45.414;12.372;2022-08-06T05:37:11;7.03;;;3.75;;
23336;SDS011;11840;45.414;12.372;2022-08-06T05:39:37;6.72;;;3.80;;
23336;SDS011;11840;45.414;12.372;2022-08-06T05:42:03;4.50;;;3.88;;
23336;SDS011;11840;45.414;12.372;2022-08-06T05:44:29;6.80;;;4.63;;
23336;SDS011;11840;45.414;12.372;2022-08-06T05:47:05;7.18;;;4.13;;
23336;SDS011;11840;45.414;12.372;2022-08-06T05:49:42;7.90;;;4.00;;
23336;SDS011;11840;45.414;12.372;2022-08-06T05:52:10;9.18;;;4.15;;
23336;SDS011;11840;45.414;12.372;2022-08-06T05:54:50;4.05;;;3.50;;
23336;SDS011;11840;45.414;12.372;2022-08-06T05:57:21;5.43;;;3.67;;
23336;SDS011;11840;45.414;12.372;2022-08-06T05:59:54;8.45;;;4.22;;
23336;SDS011;11840;45.414;12.372;2022-08-06T06:02:22;5.47;;;3.92;;
23336;SDS011;11840;45.414;12.372;2022-08-06T06:04:49;5.38;;;3.63;;
23336;SDS011;11840;45.414;12.372;2022-08-06T06:07:15;7.00;;;3.65;;
23336;SDS011;11840;45.414;12.372;2022-08-06T06:09:41;7.28;;;4.40;;
23336;SDS011;11840;45.414;12.372;2022-08-06T06:12:09;5.13;;;4.10;;
23336;SDS011;11840;45.414;12.372;2022-08-06T06:14:36;5.72;;;4.20;;
23336;SDS011;11840;45.414;12.372;2022-08-06T06:19:38;4.95;;;4.00;;
23336;SDS011;11840;45.414;12.372;2022-08-06T06:24:45;7.97;;;4.13;;
23336;SDS011;11840;45.414;12.372;2022-08-06T06:27:16;8.65;;;3.92;;
23336;SDS011;11840;45.414;12.372;2022-08-06T06:29:51;6.72;;;3.88;;
23336;SDS011;11840;45.414;12.372;2022-08-06T06:32:30;10.88;;;4.28;;
23336;SDS011;11840;45.414;12.372;2022-08-06T06:37:41;10.27;;;4.25;;
23336;SDS011;11840;45.414;12.372;2022-08-06T06:42:53;6.95;;;4.20;;
23336;SDS011;11840;45.414;12.372;2022-08-06T06:45:24;8.30;;;4.55;;
23336;SDS011;11840;45.414;12.372;2022-08-06T06:47:57;10.80;;;4.20;;
23336;SDS011;11840;45.414;12.372;2022-08-06T06:50:28;5.90;;;4.18;;
23336;SDS011;11840;45.414;12.372;2022-08-06T06:52:55;9.65;;;4.18;;
23336;SDS011;11840;45.414;12.372;2022-08-06T06:55:24;6.60;;;3.95;;
23336;SDS011;11840;45.414;12.372;2022-08-06T06:57:52;7.75;;;4.47;;
23336;SDS011;11840;45.414;12.372;2022-08-06T07:00:22;9.00;;;4.43;;
23336;SDS011;11840;45.414;12.372;2022-08-06T07:02:49;5.82;;;4.07;;
23336;SDS011;11840;45.414;12.372;2022-08-06T07:05:16;7.60;;;4.00;;
23336;SDS011;11840;45.414;12.372;2022-08-06T07:07:44;6.10;;;3.75;;
23336;SDS011;11840;45.414;12.372;2022-08-06T07:10:11;6.78;;;3.97;;
23336;SDS011;11840;45.414;12.372;2022-08-06T07:12:37;5.70;;;3.78;;
23336;SDS011;11840;45.414;12.372;2022-08-06T07:15:06;6.30;;;3.80;;
23336;SDS011;11840;45.414;12.372;2022-08-06T07:17:33;7.90;;;4.10;;
23336;SDS011;11840;45.414;12.372;2022-08-06T07:20:03;5.47;;;4.28;;
23336;SDS011;11840;45.414;12.372;2022-08-06T07:22:30;5.72;;;4.25;;
23336;SDS011;11840;45.414;12.372;2022-08-06T07:25:00;6.78;;;4.28;;
23336;SDS011;11840;45.414;12.372;2022-08-06T07:27:28;8.02;;;4.05;;
23336;SDS011;11840;45.414;12.372;2022-08-06T07:29:56;6.30;;;4.07;;
23336;SDS011;11840;45.414;12.372;2022-08-06T07:32:23;6.88;;;3.95;;
23336;SDS011;11840;45.414;12.372;2022-08-06T07:34:50;12.48;;;4.13;;
23336;SDS011;11840;45.414;12.372;2022-08-06T07:37:17;10.00;;;4.50;;
23336;SDS011;11840;45.414;12.372;2022-08-06T07:39:46;6.47;;;4.20;;
23336;SDS011;11840;45.414;12.372;2022-08-06T07:42:12;7.53;;;4.53;;
23336;SDS011;11840;45.414;12.372;2022-08-06T07:44:42;8.45;;;4.80;;
23336;SDS011;11840;45.414;12.372;2022-08-06T07:47:08;4.20;;;3.42;;
23336;SDS011;11840;45.414;12.372;2022-08-06T07:49:36;7.45;;;3.78;;
23336;SDS011;11840;45.414;12.372;2022-08-06T07:52:04;5.45;;;3.85;;
23336;SDS011;11840;45.414;12.372;2022-08-06T07:54:31;5.90;;;3.42;;
23336;SDS011;11840;45.414;12.372;2022-08-06T07:56:58;10.90;;;3.70;;
23336;SDS011;11840;45.414;12.372;2022-08-06T07:59:24;7.72;;;3.38;;
23336;SDS011;11840;45.414;12.372;2022-08-06T08:01:51;8.70;;;3.75;;
23336;SDS011;11840;45.414;12.372;2022-08-06T08:04:17;7.53;;;3.58;;
23336;SDS011;11840;45.414;12.372;2022-08-06T08:07:03;5.28;;;3.28;;
23336;SDS011;11840;45.414;12.372;2022-08-06T08:09:30;8.10;;;3.85;;
23336;SDS011;11840;45.414;12.372;2022-08-06T08:11:56;6.40;;;3.05;;
23336;SDS011;11840;45.414;12.372;2022-08-06T08:14:22;5.20;;;3.15;;
23336;SDS011;11840;45.414;12.372;2022-08-06T08:16:49;5.38;;;3.00;;
23336;SDS011;11840;45.414;12.372;2022-08-06T08:19:29;5.68;;;3.70;;
23336;SDS011;11840;45.414;12.372;2022-08-06T08:21:59;5.40;;;4.03;;
23336;SDS011;11840;45.414;12.372;2022-08-06T08:24:25;5.13;;;3.70;;
23336;SDS011;11840;45.414;12.372;2022-08-06T08:26:52;6.13;;;3.72;;
23336;SDS011;11840;45.414;12.372;2022-08-06T08:29:18;5.75;;;3.10;;
23336;SDS011;11840;45.414;12.372;2022-08-06T08:31:44;5.05;;;3.25;;
23336;SDS011;11840;45.414;12.372;2022-08-06T08:34:10;5.68;;;3.50;;
23336;SDS011;11840;45.414;12.372;2022-08-06T08:36:38;5.38;;;3.20;;
23336;SDS011;11840;45.414;12.372;2022-08-06T08:39:03;6.63;;;3.42;;
23336;SDS011;11840;45.414;12.372;2022-08-06T08:41:34;4.60;;;3.10;;
23336;SDS011;11840;45.414;12.372;2022-08-06T08:44:05;10.20;;;3.78;;
23336;SDS011;11840;45.414;12.372;2022-08-06T08:46:38;7.40;;;3.65;;
23336;SDS011;11840;45.414;12.372;2022-08-06T08:49:27;8.02;;;3.80;;
23336;SDS011;11840;45.414;12.372;2022-08-06T08:51:54;6.20;;;3.45;;
23336;SDS011;11840;45.414;12.372;2022-08-06T08:54:21;4.55;;;3.33;;
23336;SDS011;11840;45.414;12.372;2022-08-06T08:56:47;8.95;;;3.15;;
23336;SDS011;11840;45.414;12.372;2022-08-06T08:59:14;8.15;;;2.88;;
23336;SDS011;11840;45.414;12.372;2022-08-06T09:01:41;7.07;;;3.10;;
23336;SDS011;11840;45.414;12.372;2022-08-06T09:04:08;6.95;;;3.40;;
23336;SDS011;11840;45.414;12.372;2022-08-06T09:06:34;7.10;;;3.42;;
23336;SDS011;11840;45.414;12.372;2022-08-06T09:09:02;5.35;;;3.30;;
23336;SDS011;11840;45.414;12.372;2022-08-06T09:11:29;4.60;;;2.90;;
23336;SDS011;11840;45.414;12.372;2022-08-06T09:13:55;6.97;;;2.78;;
23336;SDS011;11840;45.414;12.372;2022-08-06T09:16:22;9.90;;;3.55;;
23336;SDS011;11840;45.414;12.372;2022-08-06T09:18:48;5.25;;;2.88;;
23336;SDS011;11840;45.414;12.372;2022-08-06T09:21:15;5.53;;;2.78;;
23336;SDS011;11840;45.414;12.372;2022-08-06T09:23:40;3.75;;;3.03;;
23336;SDS011;11840;45.414;12.372;2022-08-06T09:26:07;4.75;;;3.05;;
23336;SDS011;11840;45.414;12.372;2022-08-06T09:28:39;4.75;;;2.85;;
23336;SDS011;11840;45.414;12.372;2022-08-06T09:33:32;3.35;;;2.90;;
23336;SDS011;11840;45.414;12.372;2022-08-06T09:36:00;4.22;;;2.90;;
23336;SDS011;11840;45.414;12.372;2022-08-06T09:38:27;4.22;;;3.70;;
23336;SDS011;11840;45.414;12.372;2022-08-06T09:43:28;4.68;;;2.72;;
23336;SDS011;11840;45.414;12.372;2022-08-06T09:45:54;7.63;;;3.15;;
23336;SDS011;11840;45.414;12.372;2022-08-06T09:48:20;5.90;;;3.22;;
23336;SDS011;11840;45.414;12.372;2022-08-06T09:50:46;3.97;;;2.33;;
23336;SDS011;11840;45.414;12.372;2022-08-06T09:53:12;3.83;;;2.55;;
23336;SDS011;11840;45.414;12.372;2022-08-06T09:55:38;4.13;;;2.63;;
23336;SDS011;11840;45.414;12.372;2022-08-06T09:58:04;6.05;;;2.83;;
23336;SDS011;11840;45.414;12.372;2022-08-06T10:00:31;5.05;;;3.00;;
23336;SDS011;11840;45.414;12.372;2022-08-06T10:02:58;4.55;;;3.45;;
23336;SDS011;11840;45.414;12.372;2022-08-06T10:05:24;5.00;;;3.17;;
23336;SDS011;11840;45.414;12.372;2022-08-06T10:10:50;7.35;;;3.40;;
23336;SDS011;11840;45.414;12.372;2022-08-06T10:13:16;6.47;;;3.15;;
23336;SDS011;11840;45.414;12.372;2022-08-06T10:15:43;5.13;;;3.75;;
23336;SDS011;11840;45.414;12.372;2022-08-06T10:18:13;5.40;;;3.08;;
23336;SDS011;11840;45.414;12.372;2022-08-06T10:21:01;5.82;;;3.25;;
23336;SDS011;11840;45.414;12.372;2022-08-06T10:23:29;5.30;;;3.67;;
23336;SDS011;11840;45.414;12.372;2022-08-06T10:25:56;5.45;;;3.50;;
23336;SDS011;11840;45.414;12.372;2022-08-06T10:28:23;4.78;;;3.38;;
23336;SDS011;11840;45.414;12.372;2022-08-06T10:30:51;5.65;;;3.50;;
23336;SDS011;11840;45.414;12.372;2022-08-06T10:33:19;3.45;;;3.15;;
23336;SDS011;11840;45.414;12.372;2022-08-06T10:35:45;5.63;;;3.35;;
23336;SDS011;11840;45.414;12.372;2022-08-06T10:38:12;4.40;;;3.95;;
23336;SDS011;11840;45.414;12.372;2022-08-06T10:40:41;7.72;;;3.78;;
23336;SDS011;11840;45.414;12.372;2022-08-06T10:43:09;5.43;;;3.20;;
23336;SDS011;11840;45.414;12.372;2022-08-06T10:45:35;5.70;;;4.00;;
23336;SDS011;11840;45.414;12.372;2022-08-06T10:48:01;5.50;;;3.85;;
23336;SDS011;11840;45.414;12.372;2022-08-06T10:50:29;8.43;;;4.30;;
23336;SDS011;11840;45.414;12.372;2022-08-06T10:52:56;4.10;;;3.45;;
23336;SDS011;11840;45.414;12.372;2022-08-06T10:55:23;7.00;;;3.90;;
23336;SDS011;11840;45.414;12.372;2022-08-06T10:57:49;5.18;;;3.70;;
23336;SDS011;11840;45.414;12.372;2022-08-06T11:00:15;6.15;;;4.00;;
23336;SDS011;11840;45.414;12.372;2022-08-06T11:05:28;7.63;;;3.58;;
23336;SDS011;11840;45.414;12.372;2022-08-06T11:15:35;6.28;;;3.80;;
23336;SDS011;11840;45.414;12.372;2022-08-06T11:18:05;6.80;;;3.67;;
23336;SDS011;11840;45.414;12.372;2022-08-06T11:22:57;5.35;;;3.60;;
23336;SDS011;11840;45.414;12.372;2022-08-06T11:25:37;6.97;;;3.72;;
23336;SDS011;11840;45.414;12.372;2022-08-06T11:28:03;8.90;;;3.92;;
23336;SDS011;11840;45.414;12.372;2022-08-06T11:30:48;3.92;;;3.50;;
23336;SDS011;11840;45.414;12.372;2022-08-06T11:33:17;6.15;;;3.67;;
23336;SDS011;11840;45.414;12.372;2022-08-06T11:35:45;5.18;;;3.90;;
23336;SDS011;11840;45.414;12.372;2022-08-06T11:38:12;5.60;;;3.90;;
23336;SDS011;11840;45.414;12.372;2022-08-06T11:40:55;5.93;;;3.60;;
23336;SDS011;11840;45.414;12.372;2022-08-06T11:54:10;5.70;;;3.83;;
23336;SDS011;11840;45.414;12.372;2022-08-06T11:59:22;5.22;;;3.92;;
23336;SDS011;11840;45.414;12.372;2022-08-06T12:01:48;5.10;;;3.75;;
23336;SDS011;11840;45.414;12.372;2022-08-06T12:09:44;4.97;;;3.78;;
23336;SDS011;11840;45.414;12.372;2022-08-06T12:14:54;4.68;;;4.20;;
23336;SDS011;11840;45.414;12.372;2022-08-06T12:17:21;5.80;;;3.75;;
23336;SDS011;11840;45.414;12.372;2022-08-06T12:19:48;4.28;;;3.67;;
23336;SDS011;11840;45.414;12.372;2022-08-06T12:22:15;5.63;;;3.60;;
23336;SDS011;11840;45.414;12.372;2022-08-06T12:24:45;6.00;;;3.75;;
23336;SDS011;11840;45.414;12.372;2022-08-06T12:27:11;4.45;;;3.80;;
23336;SDS011;11840;45.414;12.372;2022-08-06T12:29:37;4.40;;;3.58;;
23336;SDS011;11840;45.414;12.372;2022-08-06T12:32:19;6.18;;;4.00;;
23336;SDS011;11840;45.414;12.372;2022-08-06T12:34:47;5.70;;;4.10;;
23336;SDS011;11840;45.414;12.372;2022-08-06T12:37:14;5.00;;;3.95;;
23336;SDS011;11840;45.414;12.372;2022-08-06T12:39:40;4.22;;;3.83;;
23336;SDS011;11840;45.414;12.372;2022-08-06T12:42:25;5.53;;;4.07;;
23336;SDS011;11840;45.414;12.372;2022-08-06T12:44:51;6.40;;;4.18;;
23336;SDS011;11840;45.414;12.372;2022-08-06T12:47:18;4.97;;;3.80;;
23336;SDS011;11840;45.414;12.372;2022-08-06T12:49:44;5.10;;;4.55;;
23336;SDS011;11840;45.414;12.372;2022-08-06T12:52:20;5.55;;;3.92;;
23336;SDS011;11840;45.414;12.372;2022-08-06T12:54:46;6.07;;;4.60;;
23336;SDS011;11840;45.414;12.372;2022-08-06T12:57:22;6.03;;;4.00;;
23336;SDS011;11840;45.414;12.372;2022-08-06T12:59:48;5.90;;;4.03;;
23336;SDS011;11840;45.414;12.372;2022-08-06T13:02:15;3.80;;;3.50;;
23336;SDS011;11840;45.414;12.372;2022-08-06T13:04:43;5.75;;;3.97;;
23336;SDS011;11840;45.414;12.372;2022-08-06T13:07:11;6.28;;;3.92;;
23336;SDS011;11840;45.414;12.372;2022-08-06T13:09:37;5.60;;;3.65;;
23336;SDS011;11840;45.414;12.372;2022-08-06T13:12:11;6.40;;;3.97;;
23336;SDS011;11840;45.414;12.372;2022-08-06T13:14:47;5.05;;;3.60;;
23336;SDS011;11840;45.414;12.372;2022-08-06T13:17:13;5.10;;;3.67;;
23336;SDS011;11840;45.414;12.372;2022-08-06T13:19:49;8.85;;;4.00;;
23336;SDS011;11840;45.414;12.372;2022-08-06T13:22:16;5.95;;;3.88;;
23336;SDS011;11840;45.414;12.372;2022-08-06T13:24:42;6.15;;;4.00;;
23336;SDS011;11840;45.414;12.372;2022-08-06T13:27:08;6.20;;;3.65;;
23336;SDS011;11840;45.414;12.372;2022-08-06T13:29:34;50.60;;;6.90;;
23336;SDS011;11840;45.414;12.372;2022-08-06T13:32:07;36.03;;;4.75;;
23336;SDS011;11840;45.414;12.372;2022-08-06T13:34:50;76.65;;;7.30;;
23336;SDS011;11840;45.414;12.372;2022-08-06T13:37:17;65.22;;;9.10;;
23336;SDS011;11840;45.414;12.372;2022-08-06T13:40:03;88.38;;;9.70;;
23336;SDS011;11840;45.414;12.372;2022-08-06T13:42:29;86.75;;;9.68;;
23336;SDS011;11840;45.414;12.372;2022-08-06T13:44:55;42.97;;;6.63;;
23336;SDS011;11840;45.414;12.372;2022-08-06T13:47:25;54.63;;;7.53;;
23336;SDS011;11840;45.414;12.372;2022-08-06T13:49:51;41.80;;;6.22;;
23336;SDS011;11840;45.414;12.372;2022-08-06T13:52:17;39.35;;;5.30;;
23336;SDS011;11840;45.414;12.372;2022-08-06T13:54:44;27.48;;;5.25;;
23336;SDS011;11840;45.414;12.372;2022-08-06T13:57:09;22.75;;;4.20;;
23336;SDS011;11840;45.414;12.372;2022-08-06T13:59:36;18.83;;;3.60;;
23336;SDS011;11840;45.414;12.372;2022-08-06T14:02:03;34.78;;;5.65;;
23336;SDS011;11840;45.414;12.372;2022-08-06T14:04:29;42.08;;;6.50;;
23336;SDS011;11840;45.414;12.372;2022-08-06T14:06:57;39.72;;;6.07;;
23336;SDS011;11840;45.414;12.372;2022-08-06T14:09:24;46.40;;;6.50;;
23336;SDS011;11840;45.414;12.372;2022-08-06T14:11:52;47.15;;;6.78;;
23336;SDS011;11840;45.414;12.372;2022-08-06T14:14:18;32.83;;;5.20;;
23336;SDS011;11840;45.414;12.372;2022-08-06T14:16:44;23.95;;;4.53;;
23336;SDS011;11840;45.414;12.372;2022-08-06T14:19:10;12.63;;;3.80;;
23336;SDS011;11840;45.414;12.372;2022-08-06T14:21:36;9.07;;;3.47;;
23336;SDS011;11840;45.414;12.372;2022-08-06T14:24:02;13.90;;;3.58;;
23336;SDS011;11840;45.414;12.372;2022-08-06T14:26:28;10.52;;;3.65;;
23336;SDS011;11840;45.414;12.372;2022-08-06T14:28:53;8.13;;;3.53;;
23336;SDS011;11840;45.414;12.372;2022-08-06T14:31:20;8.63;;;3.90;;
23336;SDS011;11840;45.414;12.372;2022-08-06T14:33:46;8.77;;;3.72;;
23336;SDS011;11840;45.414;12.372;2022-08-06T14:36:12;12.07;;;3.70;;
23336;SDS011;11840;45.414;12.372;2022-08-06T14:38:38;9.93;;;3.83;;
23336;SDS011;11840;45.414;12.372;2022-08-06T14:41:05;14.32;;;4.60;;
23336;SDS011;11840;45.414;12.372;2022-08-06T14:43:50;11.05;;;3.70;;
23336;SDS011;11840;45.414;12.372;2022-08-06T14:46:34;6.47;;;3.47;;
23336;SDS011;11840;45.414;12.372;2022-08-06T14:49:01;7.55;;;4.13;;
23336;SDS011;11840;45.414;12.372;2022-08-06T14:51:28;12.52;;;4.20;;
23336;SDS011;11840;45.414;12.372;2022-08-06T14:53:54;6.97;;;3.47;;
23336;SDS011;11840;45.414;12.372;2022-08-06T14:56:20;6.35;;;3.20;;
23336;SDS011;11840;45.414;12.372;2022-08-06T14:58:46;7.32;;;3.45;;
23336;SDS011;11840;45.414;12.372;2022-08-06T15:01:12;4.53;;;3.10;;
23336;SDS011;11840;45.414;12.372;2022-08-06T15:03:38;4.78;;;3.35;;
23336;SDS011;11840;45.414;12.372;2022-08-06T15:06:04;5.75;;;3.30;;
23336;SDS011;11840;45.414;12.372;2022-08-06T15:08:29;3.97;;;2.70;;
23336;SDS011;11840;45.414;12.372;2022-08-06T15:10:56;7.90;;;2.80;;
23336;SDS011;11840;45.414;12.372;2022-08-06T15:13:21;7.68;;;3.20;;
23336;SDS011;11840;45.414;12.372;2022-08-06T15:15:47;5.03;;;2.88;;
23336;SDS011;11840;45.414;12.372;2022-08-06T15:18:14;7.60;;;2.90;;
23336;SDS011;11840;45.414;12.372;2022-08-06T15:20:41;4.82;;;2.78;;
23336;SDS011;11840;45.414;12.372;2022-08-06T15:23:07;5.60;;;2.42;;
23336;SDS011;11840;45.414;12.372;2022-08-06T15:25:33;3.75;;;2.92;;
23336;SDS011;11840;45.414;12.372;2022-08-06T15:27:58;5.18;;;2.60;;
23336;SDS011;11840;45.414;12.372;2022-08-06T15:30:25;4.63;;;2.97;;
23336;SDS011;11840;45.414;12.372;2022-08-06T15:32:51;6.45;;;3.25;;
23336;SDS011;11840;45.414;12.372;2022-08-06T15:35:17;5.28;;;3.20;;
23336;SDS011;11840;45.414;12.372;2022-08-06T15:37:43;6.20;;;3.17;;
23336;SDS011;11840;45.414;12.372;2022-08-06T15:40:10;6.22;;;3.08;;
23336;SDS011;11840;45.414;12.372;2022-08-06T15:42:35;7.20;;;2.80;;
23336;SDS011;11840;45.414;12.372;2022-08-06T15:45:02;7.57;;;3.00;;
23336;SDS011;11840;45.414;12.372;2022-08-06T15:47:28;5.80;;;2.60;;
23336;SDS011;11840;45.414;12.372;2022-08-06T15:49:54;7.13;;;2.60;;
23336;SDS011;11840;45.414;12.372;2022-08-06T15:52:20;7.05;;;2.70;;
23336;SDS011;11840;45.414;12.372;2022-08-06T15:54:46;6.10;;;2.30;;
23336;SDS011;11840;45.414;12.372;2022-08-06T15:57:12;4.63;;;2.42;;
23336;SDS011;11840;45.414;12.372;2022-08-06T15:59:39;5.20;;;2.10;;
23336;SDS011;11840;45.414;12.372;2022-08-06T16:02:05;3.85;;;2.00;;
23336;SDS011;11840;45.414;12.372;2022-08-06T16:04:31;2.42;;;1.42;;
23336;SDS011;11840;45.414;12.372;2022-08-06T16:06:58;4.55;;;2.10;;
23336;SDS011;11840;45.414;12.372;2022-08-06T16:09:23;10.68;;;2.60;;
23336;SDS011;11840;45.414;12.372;2022-08-06T16:11:49;6.22;;;2.17;;
23336;SDS011;11840;45.414;12.372;2022-08-06T16:14:16;2.40;;;2.03;;
23336;SDS011;11840;45.414;12.372;2022-08-06T16:16:42;4.63;;;2.50;;
23336;SDS011;11840;45.414;12.372;2022-08-06T16:19:08;6.55;;;2.17;;
23336;SDS011;11840;45.414;12.372;2022-08-06T16:21:33;2.85;;;2.20;;
23336;SDS011;11840;45.414;12.372;2022-08-06T16:23:59;2.95;;;2.30;;
23336;SDS011;11840;45.414;12.372;2022-08-06T16:26:26;5.13;;;2.35;;
23336;SDS011;11840;45.414;12.372;2022-08-06T16:28:52;4.88;;;2.35;;
23336;SDS011;11840;45.414;12.372;2022-08-06T16:31:18;10.35;;;9.30;;
23336;SDS011;11840;45.414;12.372;2022-08-06T16:33:44;2.75;;;2.40;;
23336;SDS011;11840;45.414;12.372;2022-08-06T16:36:10;3.13;;;2.00;;
23336;SDS011;11840;45.414;12.372;2022-08-06T16:38:36;3.72;;;2.28;;
23336;SDS011;11840;45.414;12.372;2022-08-06T16:41:03;4.57;;;2.10;;
23336;SDS011;11840;45.414;12.372;2022-08-06T16:43:29;5.93;;;2.28;;
23336;SDS011;11840;45.414;12.372;2022-08-06T16:45:55;4.43;;;2.60;;
23336;SDS011;11840;45.414;12.372;2022-08-06T16:48:22;6.05;;;2.33;;
23336;SDS011;11840;45.414;12.372;2022-08-06T16:50:48;5.40;;;2.40;;
23336;SDS011;11840;45.414;12.372;2022-08-06T16:53:15;6.32;;;2.55;;
23336;SDS011;11840;45.414;12.372;2022-08-06T16:55:40;5.20;;;2.10;;
23336;SDS011;11840;45.414;12.372;2022-08-06T16:58:06;2.95;;;1.70;;
23336;SDS011;11840;45.414;12.372;2022-08-06T17:00:32;5.63;;;1.98;;
23336;SDS011;11840;45.414;12.372;2022-08-06T17:02:59;2.78;;;1.65;;
23336;SDS011;11840;45.414;12.372;2022-08-06T17:05:25;4.25;;;2.13;;
23336;SDS011;11840;45.414;12.372;2022-08-06T17:07:51;4.07;;;1.77;;
23336;SDS011;11840;45.414;12.372;2022-08-06T17:10:17;3.33;;;2.15;;
23336;SDS011;11840;45.414;12.372;2022-08-06T17:12:44;3.42;;;2.33;;
23336;SDS011;11840;45.414;12.372;2022-08-06T17:15:12;4.85;;;2.40;;
23336;SDS011;11840;45.414;12.372;2022-08-06T17:17:38;7.22;;;2.40;;
23336;SDS011;11840;45.414;12.372;2022-08-06T17:20:05;5.15;;;2.45;;
23336;SDS011;11840;45.414;12.372;2022-08-06T17:22:31;4.20;;;2.15;;
23336;SDS011;11840;45.414;12.372;2022-08-06T17:24:57;6.50;;;2.50;;
23336;SDS011;11840;45.414;12.372;2022-08-06T17:27:24;4.63;;;2.97;;
23336;SDS011;11840;45.414;12.372;2022-08-06T17:29:49;5.28;;;2.47;;
23336;SDS011;11840;45.414;12.372;2022-08-06T17:32:18;38.85;;;30.13;;
23336;SDS011;11840;45.414;12.372;2022-08-06T17:34:44;5.35;;;3.30;;
23336;SDS011;11840;45.414;12.372;2022-08-06T17:37:10;5.45;;;2.78;;
23336;SDS011;11840;45.414;12.372;2022-08-06T17:39:36;5.85;;;2.13;;
23336;SDS011;11840;45.414;12.372;2022-08-06T17:42:02;12.80;;;2.47;;
23336;SDS011;11840;45.414;12.372;2022-08-06T17:44:27;14.13;;;2.63;;
23336;SDS011;11840;45.414;12.372;2022-08-06T17:46:53;6.05;;;2.38;;
23336;SDS011;11840;45.414;12.372;2022-08-06T17:49:19;4.15;;;2.00;;
23336;SDS011;11840;45.414;12.372;2022-08-06T17:51:46;4.82;;;2.00;;
23336;SDS011;11840;45.414;12.372;2022-08-06T17:54:12;2.70;;;1.73;;
23336;SDS011;11840;45.414;12.372;2022-08-06T17:56:38;3.75;;;2.10;;
23336;SDS011;11840;45.414;12.372;2022-08-06T17:59:05;6.93;;;2.00;;
23336;SDS011;11840;45.414;12.372;2022-08-06T18:01:31;3.70;;;1.90;;
23336;SDS011;11840;45.414;12.372;2022-08-06T18:03:57;3.97;;;1.80;;
23336;SDS011;11840;45.414;12.372;2022-08-06T18:06:32;4.40;;;2.17;;
23336;SDS011;11840;45.414;12.372;2022-08-06T18:08:59;5.38;;;2.20;;
23336;SDS011;11840;45.414;12.372;2022-08-06T18:11:25;8.93;;;2.13;;
23336;SDS011;11840;45.414;12.372;2022-08-06T18:13:51;3.50;;;2.00;;
23336;SDS011;11840;45.414;12.372;2022-08-06T18:16:17;3.25;;;1.90;;
23336;SDS011;11840;45.414;12.372;2022-08-06T18:18:44;5.95;;;2.45;;
23336;SDS011;11840;45.414;12.372;2022-08-06T18:21:14;2.67;;;2.00;;
23336;SDS011;11840;45.414;12.372;2022-08-06T18:23:40;6.85;;;2.92;;
23336;SDS011;11840;45.414;12.372;2022-08-06T18:26:07;5.00;;;2.40;;
23336;SDS011;11840;45.414;12.372;2022-08-06T18:28:33;3.67;;;2.20;;
23336;SDS011;11840;45.414;12.372;2022-08-06T18:30:59;2.75;;;2.00;;
23336;SDS011;11840;45.414;12.372;2022-08-06T18:33:25;6.45;;;2.15;;
23336;SDS011;11840;45.414;12.372;2022-08-06T18:35:52;8.18;;;2.70;;
23336;SDS011;11840;45.414;12.372;2022-08-06T18:38:17;10.43;;;2.75;;
23336;SDS011;11840;45.414;12.372;2022-08-06T18:40:43;6.03;;;3.00;;
23336;SDS011;11840;45.414;12.372;2022-08-06T18:43:09;7.85;;;3.03;;
23336;SDS011;11840;45.414;12.372;2022-08-06T18:45:35;7.88;;;2.63;;
23336;SDS011;11840;45.414;12.372;2022-08-06T18:48:03;8.07;;;3.00;;
23336;SDS011;11840;45.414;12.372;2022-08-06T18:50:29;8.48;;;3.08;;
23336;SDS011;11840;45.414;12.372;2022-08-06T18:52:55;15.80;;;3.40;;
23336;SDS011;11840;45.414;12.372;2022-08-06T18:55:23;11.05;;;3.75;;
23336;SDS011;11840;45.414;12.372;2022-08-06T18:57:49;11.32;;;4.00;;
23336;SDS011;11840;45.414;12.372;2022-08-06T19:00:14;8.25;;;2.80;;
23336;SDS011;11840;45.414;12.372;2022-08-06T19:02:40;7.82;;;5.18;;
23336;SDS011;11840;45.414;12.372;2022-08-06T19:05:07;4.32;;;3.28;;
23336;SDS011;11840;45.414;12.372;2022-08-06T19:07:34;3.83;;;2.92;;
23336;SDS011;11840;45.414;12.372;2022-08-06T19:10:00;3.95;;;3.05;;
23336;SDS011;11840;45.414;12.372;2022-08-06T19:12:26;3.65;;;2.95;;
23336;SDS011;11840;45.414;12.372;2022-08-06T19:14:54;4.78;;;2.42;;
23336;SDS011;11840;45.414;12.372;2022-08-06T19:17:20;3.80;;;2.50;;
23336;SDS011;11840;45.414;12.372;2022-08-06T19:19:46;3.53;;;2.40;;
23336;SDS011;11840;45.414;12.372;2022-08-06T19:22:15;3.83;;;2.47;;
23336;SDS011;11840;45.414;12.372;2022-08-06T19:24:50;3.88;;;2.78;;
23336;SDS011;11840;45.414;12.372;2022-08-06T19:27:16;5.53;;;2.50;;
23336;SDS011;11840;45.414;12.372;2022-08-06T19:29:42;3.67;;;2.75;;
23336;SDS011;11840;45.414;12.372;2022-08-06T19:32:08;4.10;;;2.50;;
23336;SDS011;11840;45.414;12.372;2022-08-06T19:34:34;3.53;;;2.38;;
23336;SDS011;11840;45.414;12.372;2022-08-06T19:37:00;5.78;;;2.70;;
23336;SDS011;11840;45.414;12.372;2022-08-06T19:39:25;6.25;;;2.63;;
23336;SDS011;11840;45.414;12.372;2022-08-06T19:41:52;4.00;;;3.00;;
23336;SDS011;11840;45.414;12.372;2022-08-06T19:44:18;8.38;;;5.53;;
23336;SDS011;11840;45.414;12.372;2022-08-06T19:46:44;5.22;;;2.20;;
23336;SDS011;11840;45.414;12.372;2022-08-06T19:49:11;3.10;;;2.33;;
23336;SDS011;11840;45.414;12.372;2022-08-06T19:51:37;2.95;;;2.22;;
23336;SDS011;11840;45.414;12.372;2022-08-06T19:54:03;4.18;;;2.50;;
23336;SDS011;11840;45.414;12.372;2022-08-06T19:56:30;3.63;;;2.60;;
23336;SDS011;11840;45.414;12.372;2022-08-06T19:58:56;4.20;;;2.50;;
23336;SDS011;11840;45.414;12.372;2022-08-06T20:01:23;4.90;;;2.67;;
23336;SDS011;11840;45.414;12.372;2022-08-06T20:03:49;3.42;;;2.00;;
23336;SDS011;11840;45.414;12.372;2022-08-06T20:06:15;3.03;;;1.90;;
23336;SDS011;11840;45.414;12.372;2022-08-06T20:08:41;3.00;;;1.77;;
23336;SDS011;11840;45.414;12.372;2022-08-06T20:11:07;2.47;;;1.50;;
23336;SDS011;11840;45.414;12.372;2022-08-06T20:13:34;2.78;;;1.75;;
23336;SDS011;11840;45.414;12.372;2022-08-06T20:16:00;4.32;;;1.70;;
23336;SDS011;11840;45.414;12.372;2022-08-06T20:18:26;3.35;;;1.63;;